Haydenville, MA (01039)

6:24 AM EDT on September 02, 2015 (GMT -0400)
Williamsburg-Conway Town Line | | Change Station
CLOSE
Current Station
Personal Weather Station
Location: Williamsburg, MA
Elevation: 860 ft
Nearby Weather Stations

Elev 860 ft 42.45 °N, 72.75 °W | Updated 6 seconds ago

Mostly Cloudy
Mostly Cloudy
58.3 °F
Feels Like 58.3 °F
N
0.0
Wind Variable Wind from North
Gusts 0.0 mph

Today
High -- | Low -- °F
--% Chance of Precip.
Yesterday
High -- | Low -- °F
Precip. -- in
6:16 AM 7:23 PM
Waning Gibbous, 81% visible
Pressure 30.01 in
Visibility 0.2 miles
Clouds Clear
Dew Point 58 °F
Humidity 99%
Rainfall 0.00 in
Snow Depth Not available.
UV 0.0 out of 12
Pollen 9.80 out of 12
Air Quality Not available.
Flu Activity Not available.
SPECI KCEF 021021Z AUTO 05002KT 1/4SM R23/1600FT FG CLR 13/13 A3001 RMK AO2
Pressure 30.01 in
Visibility 0.2 miles
Clouds Clear
Dew Point 58 °F
Humidity 99%
Rainfall 0.00 in
Snow Depth Not available.
UV 0.0 out of 12
Pollen 9.80 out of 12
Air Quality Not available.
Flu Activity Not available.
SPECI KCEF 021021Z AUTO 05002KT 1/4SM R23/1600FT FG CLR 13/13 A3001 RMK AO2

10-Day Weather Forecast

×

Almanac

Astronomy

Sep. 02, 2015 Rise Set
Actual Time
Civil Twilight
Nautical Twilight
Astronomical Twilight
Moon
Length of Visible Light
Length of Day
Tomorrow will be .
, % of the Moon is Illuminated

Today's Extremes

State Highs State Lows

Community

WunderPhotos

Upload Photos

1,851,734 photos uploaded!

WunderBlogs® & News

Nearby

Air Quality

  Air Quality AQ Index Pollutant
Not available.

Snow Depth

Station Depth Elevation

Earthquake Activity

City Distance Mag. Time & Date
Minimum magnitude displayed is 2.5.

Coastal Water Temperatures

Place Temperature

Stations

Nearby Weather Stations

Station Location Temp. Windchill Dew Point Humidity Wind Precip. Elev Updated Type